Pagina principale
METAR-TAF:

METAR-TAF

Aeroporti :

Aeroporto di Chambéry Savoia

Chambery / Aix-Les-Bains, Francia

latitudine: 45-39N, longitudine: 005-53E, altezza: 235 m

Osservazione

Il bollettino è stato emesso 17 minuti fa, alle 17:30 UTC
Vento 13 kt da nord
Temperature 7°C
Umidità 57%
Pressione 1027 hPa
Visibilità 10 km o più
Poco nuvoloso ad un'altezza di 4800 ft
Cielo coperto ad un'altezza di 6400 ft

METAR: LFLB 201730Z AUTO 01013KT 9999 FEW048 OVC064 07/M01 Q1027 NOSIG

Ora: 18:47 (17:47 UTC)

Previsione

Il bollettino è stato emesso 3 ore e 47 minuti fa, alle 14:00 UTC
Previsione valida dal 20 alle 15 UTC al 21 alle 15 UTC
Vento 10 kt da nord
Visibilità 10 km o più
nessuna nube inferiore a 1500 m e nessun cumulonembo
Evoluzione graduale
dal 20 alle 15 UTC al 20 alle 18 UTC
Nuvoloso ad un'altezza di 4000 ft
Temporaneamente
dal 20 alle 21 UTC al 21 alle 15 UTC
Vento 20 kt da nord

TAF: LFLB 201400Z 2015/2115 36010KT CAVOK BECMG 2015/2018 BKN040 TEMPO 2021/2115 36020KT

Osservazioni e previsioni meteorologiche di più di 4000 aeroporti (messaggi METAR e TAF).

Le stazioni disponibili sono rappresentate dai dischi gialli e rossi sulla carta.

Puntare il mouse per vedere il nome della stazione.

Clicca sopra per visualizzare le osservazioni e previsioni meteorologiche.

Per cambiare la mappa : fare clic sui pulsanti verdi con una croce nera per ingrandire, il pulsante verde con un trattino per diminuire, o sulla freccia verde per le mappe adiacenti.


METAR-TAF: